Timeline UpdatesTrip UpdatesNews PostsPvt PostsTravel TipsAdmin PostsConv PostsFollowed PostsChat RequestsBlog PostsPNR Posts

Disclaimer
Search
 
 
Tue Sep 30, 2014 17:22:37 ISTHomeTrainsΣChainsAtlasPNRForumGalleryNewsFAQTripsMembersLoginFeedback
No Recent News for this Train
Other Trains in the News **new
Latest...
.
Fri Dec 13, 2013 (03:40PM)
⇐ Return Journey: Train# 12834

12833/Ahmedabad- Howrah SF Express

Time-Table HAS CHANGED.
Sep 03 (11:10AM)
Change Departure Station:
Change Arrival Station:
Post a Train Travel TipPost a Train Travel Tip **new
Post a Comment/Question/Picture/VideoPost a Comment/Question/Picture/Video
Pantry/Catering
✓ Pantry Car Avbl
✓ Catering Avbl
RSA - Rake Sharing
Rake/Coach Composition
LOCO(SRC WAP-4)-SLR-LD-GEN-A2-A1-B2-B1-S13-S12-PC-S11-S10-S9-S8-S7-S6-S5-S4-S3-S2-S1-GEN-SLR As per Entry# 262159
Loco
Loco: SRC WAP 4 ... Entry# 289462
News    PNR    Forum    Time-Table    Availability    Fare Chart    Map    Arr/Dep History    Trips    Gallery    ΣChains    X/O    Timeline    
Travel Time: 11h 42m    14 halts    Distance: 677 km    Avg Speed: 57 km/hr
Type: SuperFast
Zone: SER/South Eastern
Departs @ 01:48 (Avg 18m late)
Platform# ???
SMTWTFS
Naila/NIA 
Arrives @ 13:30 (Avg 21m late)
Platform# 17
SMTWTFS
Kolkata Howrah Junction/HWH 

14 halts. 111 intermediate Stations between Naila and Kolkata Howrah Junction

Show ALL intermediate Stations  Show Old Time-Table

#CodeStation NameX/OArrivesAvgDepartsAvgHaltPFDay#KmSpeedElevZoneAddress
1ADIAhmedabad Junction (12)  -23:55+461-1411.62451mWRAhmedabad, Gujarat
2MANManinagar (2)X  00:03+000:05+02m12-1408.46950mWRAhmadabad, Gujarat
3NDNadiad Junction (4)X  00:42+1500:44+152m12-1366.06237mWRNadiad, Gujarat
4ANNDAnand Junction (6)X  01:02+1601:04+232m12-1347.54944mWRAnand, Gujarat
5BRCVadodara Junction (7)  01:48+2201:55+237m12-1311.88836mWRVadodara 390005, Gujarat
6BHBharuch Junction (5)X  02:43+2102:45+192m42-1241.25919mWRBharuch, Gujarat
7STSurat (4)X  03:45+2003:55+2010m32-1182.03419mWRSurat 395001, Gujarat
8UDNUdhna Junction (3)  04:02+2404:04+272m32-1178.06316mWRUdhna 394210, Gujarat
9BIYBardoli (2)  04:30+3604:32+362m12-1150.85935mWRNear Bardoli Sugar Factory Bardoli, Gujarat
10MIDMadhi (1)X  04:47+4104:49+412m12-1135.95345mWRMadhi, Gujarat
11VYAVyara (2)X  05:06+4405:08+442m22-1121.05590mWRVyara, Gujarat
12NWUNavapur (2)X  05:54+4505:56+572m--2-1079.149124mWRNavapur, Gujarat
13NDBNandurbar (3)  07:07+4107:15+398m22-1021.246203mWRNandurbar, Maharashtra
14DDEDondaicha (2)  08:00+2808:02+282m12-986.845163mWRDondaicha, Maharashtra
15SNKSindkheda (1)  08:28+2208:30+222m12-967.453178mWRState Highway 11, Maharashtra
16ANAmalner (2)  09:17+1409:20+143m12-925.862188mWRAmalner, Maharashtra
17DXGDharangaon (2)  09:44+1509:46+152m12-900.936217mWRDharangaon, Maharashtra
18JLJalgaon Junction (4)X  10:38 10:35+1410:40+182 5m12-871.272213mCRJalgaon 425001, Maharashtra
19BSLBhusaval Junction (8)O  11:05 11:00+1911:20 11:10+1915 10m12-847.170208mCRBhusaval 425201, Maharashtra
20MKUMalkapur (2)X  12:06 11:53+2312:08 11:55+242m22-797.273252mCRMalkapur, Maharashtra
21NNNandura (2)  12:28 12:18+2412:30 12:20+242m22-769.392267mCRNandura, Maharashtra
22JMJalamb Junction (3)  12:38 12:28+2712:40 12:30+272m12-757.093259mCRJalamb, Maharashtra
23SEGShegaon (2)  12:48 12:38+3012:50 12:40+302m22-744.689281mCRShegaon 444203, Maharashtra
24AKAkola Junction (7)  13:15 13:05+3513:20 13:10+355m22-707.580284mCRAkola-444001, Maharashtra
25MZRMurtizapur (3)  13:58 13:38+3114:00 13:40+312m12-670.336303mCRMurtajapur, Maharashtra
26BDBadnera Junction (4)  14:55 14:50+815:00 14:55+115m22-628.569335mCRBadnera (Amravati) 444701, Maharashtra
27CNDChandur (2)  15:20+1815:22+182m12-599.777331mCRAmravati Distt, Maharashtra
28DMNDhamangaon (2)X  15:35+1815:37+182m22-583.180300mCRDhamangaon, Maharashtra
29PLOPulgaon Junction (3)X  15:52+2015:54+202m12-563.168273mCRPulgaon, Maharashtra
30WRWardha Junction (4)  16:20+1716:23+173m32-533.675289mCRWardha 442001, Maharashtra
31AJNIAjni (3)  17:24+1117:26+122m12-457.78310mCRNagpur 440003, Maharashtra
32NGPNagpur Junction (8)X  17:50+318:00+710m12-454.748314mCRNagpur 440001, Maharashtra
33KPKamptee (3)X  18:18+1718:20+172m--2-440.496290mSECRKamptee, Maharashtra
34BRDBhandara Road (3)X  18:50+2018:52+192m--2-392.477266mSECRState Highway 252 Bhandara District, Maharashtra
35TMRTumsar Road (5)X  19:06+1919:08+192m--2-374.581267mSECRDistt. Bhandara, Maharashtra
36TROTirora (3)  19:23+2219:25+222m--2-354.157282mSECRDist Gondia, Maharashtra
37GGondia Junction (7)X  19:56+1619:58+162m22-324.891316mSECRGondia 441601, Maharashtra
38AGNAmgaon (2)X  20:13+2120:15+212m--2-302.072317mSECRGondia, Maharashtra
39DGGDongargarh (2)X  20:57+2120:59+212m--2-251.586 SECRDongargarh, Chhattisgarh
40RJNRaj Nandgaon (3)X  21:21+2121:23+212m12-220.039313mSECRRajnandgaon, Chhattisgarh
41DURGDurg Junction (6)  22:10+522:15+105m32-189.549299mSECRPh: 91-788-2322059, Chhattisgarh
42BPHBBhilai Power House (3)X  22:24 22:26+2222:26 22:28+222m12-180.662312mSECRBhilai, Chhattisgarh
43RRaipur Junction (6)X  22:55+1123:05+1110m62-152.674297mSECRRaipur, Chhattisgarh
44TLDTilda (3)  23:34 23:36+1623:36 23:38+152m--2-114.487 SECRBanjari Rd, Chhattisgarh
45BYTBhatapara (4)  23:54 23:56+1723:56 23:58+162m--2-88.449270mSECRBanjari Road, Chhattisgarh
46BSPBilaspur Junction (8)X  00:55+601:10+1215m23-42.278271mSECRBilaspur, Chhattisgarh
47AKTAkaltara (4)  01:31+1901:33+192m--3-14.969284mSECRDist. Janjgir Champa, Chhattisgarh
48NIANaila»X  01:46+1801:48+182m--30.054273mSECRJanjgir, Chhattisgarh
49CPHChampa Junction (3)X  02:00+1802:03+243m--310.985264mSECRNational Highway 200 (07819-245767), Chhattisgarh
50BUABaradwar  02:13 02:14+2802:15 02:16+282m--326.491 SECRJanjgir-Champa, Chhattisgarh
51KHSKharsia  02:36+3302:38+332m--356.685 SECRNational Highway 200, Chhattisgarh
52RIGRaigarh (3)XO  03:02+3303:07+325m--390.690220mSECRRaigarh, Chhattisgarh
53BPHBelpahar  03:41+4403:43+432m--3141.753 SECRBelpahar, Odisha
54BRJNBrajrajnagarX  03:53+4303:55+422m--3150.611212mSECRBrajrajnagar, Odisha
55JSGJharsuguda Junction (5)X  05:00+605:02+122m23162.281236mSERJharsuguda, Odisha
56BMBBamra (3)  05:29+1305:31+132m--3198.880259mSERBamra PH : 06642-229268, Odisha
57GPRaj Gangpur (3)X  05:57+1505:59+152m23233.454237mSERRaj Ganpur, Odisha
58ROURourkela Junction (5)  06:32+1206:47+1215m13263.275198mSERRourkela, Odisha
59CKPChakradharpur (3)X  08:08+1108:15+117m23364.253235mSERChakradharpur (West Singhbhum), Jharkhand
60TATATatanagar Junction (5)  09:20 09:25+509:35+515 10m53426.579164mSER91-657-2423026, Jharkhand
61KGPKharagpur Junction (10)  11:17+1211:22+125m63561.67342mSERKharagpur, West Bengal
62SRCKolkata Santragachi Junction (6)  12:50 12:51+212:52 12:53+22m63669.2127mSERDist: Howrah - 711104, West Bengal
63HWHKolkata Howrah Junction (23)•  13:30+21-173676.6-10mERHowrah 711101, West Bengal
Scroll to Top
Scroll to Bottom